createdAt,value
2023-04-15T00:00:16.237Z,99887.56
2023-04-15T00:02:44.381Z,99879.25
2023-04-15T00:05:12.466Z,99895.19
2023-04-15T00:07:40.470Z,99891.09
2023-04-15T00:10:09.532Z,99895.94
2023-04-15T00:12:37.728Z,99903.28
2023-04-15T00:15:06.760Z,99891.22
2023-04-15T00:17:36.235Z,99887.78
2023-04-15T00:20:06.453Z,99891.28
2023-04-15T00:22:34.421Z,99898.47
2023-04-15T00:25:02.425Z,99897.50
2023-04-15T00:27:30.874Z,99899.72
2023-04-15T00:29:58.873Z,99895.13
2023-04-15T00:32:26.913Z,99889.28
2023-04-15T00:34:56.435Z,99884.75
2023-04-15T00:37:24.398Z,99901.63
2023-04-15T00:39:52.383Z,99900.63
2023-04-15T00:42:21.778Z,99905.13
2023-04-15T00:44:50.061Z,99900.78
2023-04-15T00:47:19.450Z,99901.78
2023-04-15T00:49:50.292Z,99891.84
2023-04-15T00:52:19.649Z,99895.13
2023-04-15T00:54:47.590Z,99890.25
2023-04-15T00:57:15.612Z,99890.94
2023-04-15T00:59:43.809Z,99894.00
2023-04-15T01:02:12.051Z,99900.50
2023-04-15T01:04:40.168Z,99895.97
2023-04-15T01:07:11.048Z,99890.31
2023-04-15T01:09:40.505Z,99892.69
2023-04-15T01:12:11.432Z,99895.13
2023-04-15T01:14:39.588Z,99889.59
2023-04-15T01:17:07.558Z,99889.75
2023-04-15T01:19:35.782Z,99892.59
2023-04-15T01:22:04.193Z,99890.78
2023-04-15T01:24:33.309Z,99895.44
2023-04-15T01:27:03.494Z,99892.91
2023-04-15T01:29:33.312Z,99899.72
2023-04-15T01:32:01.227Z,99896.03
2023-04-15T01:34:29.731Z,99899.03
2023-04-15T01:36:57.675Z,99897.88
2023-04-15T01:39:25.639Z,99909.19
2023-04-15T01:41:53.906Z,99908.97
2023-04-15T01:44:23.207Z,99907.44
2023-04-15T01:46:51.239Z,99913.84
2023-04-15T01:49:19.200Z,99920.31
2023-04-15T01:51:47.174Z,99912.84
2023-04-15T01:54:15.120Z,99916.06
2023-04-15T01:56:43.110Z,99920.03
2023-04-15T01:59:11.195Z,99926.66
2023-04-15T02:01:42.830Z,99914.75
2023-04-15T02:04:16.675Z,99913.75
2023-04-15T02:06:44.920Z,99903.53
2023-04-15T02:09:13.017Z,99894.53
2023-04-15T02:11:40.994Z,99891.25
2023-04-15T02:14:09.553Z,99895.50
2023-04-15T02:16:37.684Z,99893.22
2023-04-15T02:19:08.093Z,99894.78
2023-04-15T02:21:36.522Z,99911.72
2023-04-15T02:24:04.626Z,99914.84
2023-04-15T02:26:33.519Z,99917.91
2023-04-15T02:29:01.629Z,99917.91
2023-04-15T02:31:29.905Z,99921.88
2023-04-15T02:33:57.994Z,99917.41
2023-04-15T02:36:27.379Z,99928.78
2023-04-15T02:38:55.421Z,99937.38
2023-04-15T02:41:27.227Z,99926.69
2023-04-15T02:43:55.244Z,99934.28
2023-04-15T02:46:23.326Z,99941.72
2023-04-15T02:48:54.503Z,99932.78
2023-04-15T02:51:23.654Z,99937.50
2023-04-15T02:53:53.027Z,99933.72
2023-04-15T02:56:23.430Z,99930.63
2023-04-15T02:58:56.230Z,99931.97
2023-04-15T03:01:24.330Z,99927.28
2023-04-15T03:03:52.364Z,99935.69
2023-04-15T03:06:20.749Z,99936.06
2023-04-15T03:08:48.729Z,99939.59
2023-04-15T03:11:18.746Z,99927.34
2023-04-15T03:13:47.435Z,99935.34
2023-04-15T03:16:16.350Z,99937.31
2023-04-15T03:18:44.415Z,99938.97
2023-04-15T03:21:12.441Z,99936.59
2023-04-15T03:23:40.428Z,99933.47
2023-04-15T03:26:11.214Z,99937.31
2023-04-15T03:28:40.694Z,99943.03
2023-04-15T03:31:08.692Z,99948.69
2023-04-15T03:33:36.644Z,99949.03
2023-04-15T03:36:04.759Z,99947.56
2023-04-15T03:38:32.716Z,99948.75
2023-04-15T03:41:00.665Z,99952.47
2023-04-15T03:43:28.782Z,99957.00
2023-04-15T03:45:59.054Z,99950.00
2023-04-15T03:48:28.191Z,99947.69
2023-04-15T03:50:56.184Z,99952.66
2023-04-15T03:53:24.420Z,99961.13
2023-04-15T03:55:52.421Z,99959.75
2023-04-15T03:58:20.676Z,99959.81
2023-04-15T04:00:48.629Z,99961.56
2023-04-15T04:03:18.302Z,99959.66
2023-04-15T04:05:46.606Z,99950.81
2023-04-15T04:08:16.374Z,99964.41
2023-04-15T04:10:44.454Z,99958.44
2023-04-15T04:13:12.516Z,99959.19
2023-04-15T04:15:40.925Z,99960.13
2023-04-15T04:18:08.882Z,99966.31
2023-04-15T04:20:40.563Z,99974.09
2023-04-15T04:23:11.626Z,99973.47
2023-04-15T04:25:42.664Z,99969.75
2023-04-15T04:28:11.732Z,99971.53
2023-04-15T04:30:39.677Z,99970.28
2023-04-15T04:33:08.498Z,99969.38
2023-04-15T04:35:37.845Z,99976.41
2023-04-15T04:38:07.415Z,99963.81
2023-04-15T04:40:35.709Z,99970.38
2023-04-15T04:43:03.768Z,99964.66
2023-04-15T04:45:34.067Z,99968.63
2023-04-15T04:48:02.070Z,99955.03
2023-04-15T04:50:30.157Z,99960.41
2023-04-15T04:52:58.148Z,99963.81
2023-04-15T04:55:27.971Z,99955.63
2023-04-15T04:57:55.951Z,99962.50
2023-04-15T05:00:24.498Z,99962.44
2023-04-15T05:02:52.679Z,99961.44
2023-04-15T05:05:20.728Z,99967.16
2023-04-15T05:07:50.347Z,99968.16
2023-04-15T05:10:18.701Z,99975.66
2023-04-15T05:12:48.005Z,99988.31
2023-04-15T05:15:15.977Z,100002.19
2023-04-15T05:17:44.770Z,100013.75
2023-04-15T05:20:13.927Z,100005.28
2023-04-15T05:22:41.889Z,100015.72
2023-04-15T05:25:10.500Z,100024.91
2023-04-15T05:27:40.820Z,100024.59
2023-04-15T05:30:13.316Z,100031.16
2023-04-15T05:32:41.712Z,100024.22
2023-04-15T05:35:09.958Z,100033.06
2023-04-15T05:37:38.056Z,100033.31
2023-04-15T05:40:06.739Z,100041.03
2023-04-15T05:42:34.702Z,100040.94
2023-04-15T05:45:05.566Z,100038.63
2023-04-15T05:47:35.046Z,100047.88
2023-04-15T05:50:03.369Z,100056.69
2023-04-15T05:52:34.060Z,100057.88
2023-04-15T05:55:02.105Z,100064.34
2023-04-15T05:57:30.174Z,100078.66
2023-04-15T05:59:58.116Z,100073.63
2023-04-15T06:02:26.852Z,100062.47
2023-04-15T06:04:56.283Z,100075.06
2023-04-15T06:07:24.374Z,100083.81
2023-04-15T06:09:52.501Z,100077.53
2023-04-15T06:12:20.482Z,100083.09
2023-04-15T06:14:48.467Z,100087.06
2023-04-15T06:17:18.521Z,100093.34
2023-04-15T06:19:46.503Z,100095.28
2023-04-15T06:22:15.867Z,100093.25
2023-04-15T06:24:46.643Z,100099.78
2023-04-15T06:27:14.552Z,100103.81
2023-04-15T06:29:42.521Z,100101.00
2023-04-15T06:32:13.331Z,100098.78
2023-04-15T06:34:41.416Z,100099.38
2023-04-15T06:37:10.172Z,100094.78
2023-04-15T06:39:39.490Z,100103.72
2023-04-15T06:42:07.540Z,100108.88
2023-04-15T06:44:35.801Z,100102.19
2023-04-15T06:47:06.689Z,100108.13
2023-04-15T06:49:35.157Z,100121.31
2023-04-15T06:52:05.064Z,100113.03
2023-04-15T06:54:33.146Z,100112.94
2023-04-15T06:57:02.514Z,100105.69
2023-04-15T06:59:30.579Z,100114.78
2023-04-15T07:01:58.704Z,100109.25
2023-04-15T07:04:27.851Z,100110.53
2023-04-15T07:06:56.960Z,100114.63
2023-04-15T07:09:25.749Z,100114.09
2023-04-15T07:11:53.806Z,100121.38
2023-04-15T07:14:23.148Z,100119.59
2023-04-15T07:16:51.413Z,100127.19
2023-04-15T07:19:19.368Z,100129.19
2023-04-15T07:21:48.150Z,100137.56
2023-04-15T07:24:18.347Z,100132.38
2023-04-15T07:26:46.375Z,100134.44
2023-04-15T07:29:14.363Z,100139.94
2023-04-15T07:31:43.680Z,100142.97
2023-04-15T07:34:11.648Z,100150.50
2023-04-15T07:36:40.460Z,100142.63
2023-04-15T07:39:08.448Z,100153.69
2023-04-15T07:41:36.453Z,100151.16
2023-04-15T07:44:04.459Z,100146.34
2023-04-15T07:46:32.470Z,100154.75
2023-04-15T07:49:02.195Z,100146.94
2023-04-15T07:51:30.807Z,100151.13
2023-04-15T07:53:58.806Z,100143.03
2023-04-15T07:56:27.241Z,100147.91
2023-04-15T07:58:55.189Z,100136.81
2023-04-15T08:01:23.205Z,100137.66
2023-04-15T08:03:51.262Z,100137.94
2023-04-15T08:06:20.723Z,100138.66
2023-04-15T08:08:48.723Z,100140.00
2023-04-15T08:11:17.017Z,100144.22
2023-04-15T08:13:45.044Z,100134.47
2023-04-15T08:16:19.854Z,100138.81
2023-04-15T08:18:48.293Z,100136.16
2023-04-15T08:21:16.434Z,100131.59
2023-04-15T08:23:46.417Z,100134.81
2023-04-15T08:26:14.442Z,100139.47
2023-04-15T08:28:44.205Z,100139.81
2023-04-15T08:31:12.417Z,100132.28
2023-04-15T08:33:40.429Z,100151.59
2023-04-15T08:36:09.424Z,100155.34
2023-04-15T08:38:37.707Z,100156.34
2023-04-15T08:41:13.265Z,100161.84
2023-04-15T08:43:48.356Z,100166.97
2023-04-15T08:46:17.877Z,100170.72
2023-04-15T08:48:48.891Z,100170.38
2023-04-15T08:51:17.816Z,100192.41
2023-04-15T08:53:47.570Z,100199.84
2023-04-15T08:56:18.030Z,100205.28
2023-04-15T08:58:46.369Z,100214.00
2023-04-15T09:01:14.888Z,100206.66
2023-04-15T09:03:43.478Z,100216.28
2023-04-15T09:06:11.740Z,100219.59
2023-04-15T09:08:39.704Z,100228.66
2023-04-15T09:11:07.716Z,100216.31
2023-04-15T09:13:37.089Z,100230.81
2023-04-15T09:16:08.375Z,100227.84
2023-04-15T09:18:38.483Z,100226.56
2023-04-15T09:21:08.979Z,100237.69
2023-04-15T09:23:37.352Z,100240.00
2023-04-15T09:26:06.482Z,100241.59
2023-04-15T09:28:42.265Z,100240.34
2023-04-15T09:31:10.834Z,100248.44
2023-04-15T09:33:56.205Z,100249.94
2023-04-15T09:36:25.216Z,100247.34
2023-04-15T09:38:56.867Z,100246.97
2023-04-15T09:41:28.608Z,100256.75
2023-04-15T09:43:58.101Z,100253.97
2023-04-15T09:46:44.233Z,100247.56
2023-04-15T09:49:13.633Z,100256.97
2023-04-15T09:51:43.386Z,100249.59
2023-04-15T09:54:21.569Z,100249.91
2023-04-15T09:56:50.010Z,100255.13
2023-04-15T09:59:20.157Z,100258.81
2023-04-15T10:01:49.158Z,100263.00
2023-04-15T10:04:17.652Z,100258.84
2023-04-15T10:06:46.572Z,100262.34
2023-04-15T10:09:17.954Z,100256.66
2023-04-15T10:11:47.660Z,100258.00
2023-04-15T10:14:17.563Z,100251.53
2023-04-15T10:16:49.610Z,100253.88
2023-04-15T10:19:24.208Z,100253.84
2023-04-15T10:21:53.109Z,100250.81
2023-04-15T10:24:22.333Z,100253.00
2023-04-15T10:26:51.500Z,100252.88
2023-04-15T10:29:20.015Z,100246.75
2023-04-15T10:31:49.895Z,100264.63
2023-04-15T10:34:19.426Z,100273.81
2023-04-15T10:36:47.669Z,100278.50
2023-04-15T10:39:41.711Z,100275.25
2023-04-15T10:42:11.043Z,100278.31
2023-04-15T10:44:39.802Z,100279.38
2023-04-15T10:47:18.895Z,100275.44
2023-04-15T10:49:48.740Z,100265.72
2023-04-15T10:52:19.265Z,100266.06
2023-04-15T10:54:47.702Z,100264.22
2023-04-15T10:57:18.342Z,100267.75
2023-04-15T11:00:06.684Z,100266.22
2023-04-15T11:02:48.043Z,100269.72
2023-04-15T11:05:16.804Z,100260.00
2023-04-15T11:07:51.586Z,100267.81
2023-04-15T11:10:58.979Z,100269.47
2023-04-15T11:13:29.448Z,100268.06
2023-04-15T11:16:02.113Z,100272.25
2023-04-15T11:18:33.923Z,100276.78
2023-04-15T11:21:04.247Z,100265.72
2023-04-15T11:23:38.665Z,100267.56
2023-04-15T11:26:09.809Z,100248.25
2023-04-15T11:28:39.209Z,100255.56
2023-04-15T11:31:10.892Z,100260.78
2023-04-15T11:33:47.050Z,100259.22
2023-04-15T11:36:15.067Z,100255.94
2023-04-15T11:38:48.156Z,100273.41
2023-04-15T11:41:16.677Z,100274.41
2023-04-15T11:43:44.617Z,100277.50
2023-04-15T11:46:12.695Z,100276.47
2023-04-15T11:48:45.316Z,100279.31
2023-04-15T11:51:14.907Z,100279.19
2023-04-15T11:53:44.833Z,100273.44
2023-04-15T11:56:18.322Z,100264.69
2023-04-15T11:58:46.688Z,100270.28
2023-04-15T12:01:14.860Z,100272.16
2023-04-15T12:03:46.918Z,100275.81
2023-04-15T12:06:17.870Z,100277.94
2023-04-15T12:09:02.876Z,100270.97
2023-04-15T12:11:36.676Z,100272.16
2023-04-15T12:14:11.302Z,100271.78
2023-04-15T12:16:48.450Z,100280.81
2023-04-15T12:19:23.513Z,100288.91
2023-04-15T12:21:51.743Z,100292.91
2023-04-15T12:24:23.572Z,100285.03
2023-04-15T12:26:53.815Z,100288.75
2023-04-15T12:29:28.318Z,100289.22
2023-04-15T12:31:58.318Z,100283.22
2023-04-15T12:34:32.162Z,100276.13
2023-04-15T12:37:01.915Z,100268.63
2023-04-15T12:39:31.330Z,100281.44
2023-04-15T12:42:00.621Z,100277.78
2023-04-15T12:44:29.172Z,100265.81
2023-04-15T12:46:57.911Z,100265.53
2023-04-15T12:49:30.887Z,100265.81
2023-04-15T12:52:01.146Z,100279.00
2023-04-15T12:54:29.335Z,100276.53
2023-04-15T12:56:57.948Z,100282.47
2023-04-15T12:59:28.606Z,100286.81
2023-04-15T13:01:57.183Z,100286.44
2023-04-15T13:04:25.753Z,100288.06
2023-04-15T13:06:55.097Z,100290.94
2023-04-15T13:09:23.073Z,100291.19
2023-04-15T13:11:51.143Z,100293.69
2023-04-15T13:14:19.115Z,100299.63
2023-04-15T13:16:47.335Z,100307.28
2023-04-15T13:19:15.863Z,100296.16
2023-04-15T13:21:43.877Z,100298.31
2023-04-15T13:24:13.227Z,100288.97
2023-04-15T13:26:41.227Z,100289.91
2023-04-15T13:29:09.357Z,100282.59
2023-04-15T13:31:37.372Z,100293.59
2023-04-15T13:34:05.814Z,100283.69
2023-04-15T13:36:33.954Z,100291.94
2023-04-15T13:39:01.991Z,100297.13
2023-04-15T13:41:33.860Z,100289.91
2023-04-15T13:44:02.169Z,100299.50
2023-04-15T13:46:30.390Z,100294.75
2023-04-15T13:48:58.352Z,100308.19
2023-04-15T13:51:27.105Z,100290.47
2023-04-15T13:53:55.180Z,100286.13
2023-04-15T13:56:23.098Z,100296.16
2023-04-15T13:58:54.992Z,100297.13
2023-04-15T14:01:22.982Z,100300.00
2023-04-15T14:03:51.199Z,100294.94
2023-04-15T14:06:19.323Z,100312.31
2023-04-15T14:08:47.328Z,100324.66
2023-04-15T14:11:15.304Z,100311.38
2023-04-15T14:13:43.243Z,100309.25
2023-04-15T14:16:12.687Z,100316.06
2023-04-15T14:18:41.359Z,100318.97
2023-04-15T14:21:09.318Z,100313.22
2023-04-15T14:23:37.302Z,100316.69
2023-04-15T14:26:05.709Z,100303.03
2023-04-15T14:28:33.680Z,100317.25
2023-04-15T14:31:01.758Z,100319.06
2023-04-15T14:33:31.138Z,100323.88
2023-04-15T14:36:01.183Z,100326.03
2023-04-15T14:38:29.232Z,100320.03
2023-04-15T14:40:57.196Z,100315.25
2023-04-15T14:43:25.177Z,100331.88
2023-04-15T14:45:53.196Z,100322.97
2023-04-15T14:48:21.224Z,100321.63
2023-04-15T14:50:50.713Z,100323.84
2023-04-15T14:53:18.701Z,100317.22
2023-04-15T14:55:46.734Z,100312.09
2023-04-15T14:58:14.703Z,100311.94
2023-04-15T15:00:44.560Z,100312.44
2023-04-15T15:03:13.890Z,100314.72
2023-04-15T15:05:42.829Z,100316.91
2023-04-15T15:08:15.369Z,100323.97
2023-04-15T15:10:49.269Z,100337.25
2023-04-15T15:13:19.305Z,100334.47
2023-04-15T15:15:49.397Z,100334.22
2023-04-15T15:18:19.998Z,100332.53
2023-04-15T15:20:48.399Z,100334.81
2023-04-15T15:23:17.792Z,100338.63
2023-04-15T15:25:46.952Z,100348.22
2023-04-15T15:28:14.980Z,100345.72
2023-04-15T15:30:42.957Z,100353.31
2023-04-15T15:33:10.905Z,100350.25
2023-04-15T15:35:38.857Z,100347.16
2023-04-15T15:38:06.862Z,100354.06
2023-04-15T15:40:36.265Z,100361.13
2023-04-15T15:43:06.867Z,100361.34
2023-04-15T15:45:34.892Z,100355.47
2023-04-15T15:48:03.028Z,100366.72
2023-04-15T15:50:31.103Z,100372.72
2023-04-15T15:53:01.555Z,100373.28
2023-04-15T15:55:29.687Z,100382.69
2023-04-15T15:57:58.979Z,100388.72
2023-04-15T16:00:27.076Z,100393.03
2023-04-15T16:05:29.298Z,100399.97
2023-04-15T16:07:57.234Z,100398.97
2023-04-15T16:10:25.558Z,100405.69
2023-04-15T16:12:53.617Z,100407.72
2023-04-15T16:15:23.753Z,100398.16
2023-04-15T16:17:54.428Z,100405.34
2023-04-15T16:20:22.465Z,100397.56
2023-04-15T16:22:50.456Z,100398.03
2023-04-15T16:25:18.570Z,100399.63
2023-04-15T16:27:59.314Z,100391.50
2023-04-15T16:30:32.899Z,100395.19
2023-04-15T16:33:01.053Z,100390.63
2023-04-15T16:35:29.098Z,100402.50
2023-04-15T16:37:57.597Z,100407.53
2023-04-15T16:40:26.129Z,100396.78
2023-04-15T16:42:54.279Z,100406.34
2023-04-15T16:45:22.192Z,100401.34
2023-04-15T16:47:51.551Z,100402.69
2023-04-15T16:50:19.593Z,100405.19
2023-04-15T16:52:47.554Z,100403.69
2023-04-15T16:55:15.677Z,100410.50
2023-04-15T16:58:01.662Z,100403.78
2023-04-15T17:00:32.020Z,100411.53
2023-04-15T17:03:02.036Z,100405.97
2023-04-15T17:05:30.748Z,100413.53
2023-04-15T17:07:58.777Z,100410.31
2023-04-15T17:10:26.730Z,100410.94
2023-04-15T17:12:56.602Z,100411.94
2023-04-15T17:15:25.019Z,100423.13
2023-04-15T17:17:56.149Z,100425.16
2023-04-15T17:20:26.505Z,100430.25
2023-04-15T17:22:54.473Z,100421.00
2023-04-15T17:25:22.468Z,100427.59
2023-04-15T17:27:50.402Z,100427.41
2023-04-15T17:30:18.474Z,100430.19
2023-04-15T17:32:46.545Z,100427.19
2023-04-15T17:35:14.667Z,100434.91
2023-04-15T17:37:44.035Z,100427.09
2023-04-15T17:40:13.858Z,100433.75
2023-04-15T17:42:42.012Z,100440.19
2023-04-15T17:45:10.931Z,100437.56
2023-04-15T17:47:38.924Z,100440.03
2023-04-15T17:50:08.184Z,100433.88
2023-04-15T17:52:36.142Z,100438.91
2023-04-15T17:55:06.316Z,100440.69
2023-04-15T17:57:34.423Z,100446.00
2023-04-15T18:00:02.504Z,100437.78
2023-04-15T18:02:30.664Z,100455.56
2023-04-15T18:04:59.061Z,100456.09
2023-04-15T18:07:27.219Z,100454.22
2023-04-15T18:09:56.036Z,100458.66
2023-04-15T18:12:25.400Z,100465.88
2023-04-15T18:14:55.643Z,100459.78
2023-04-15T18:17:23.724Z,100471.91
2023-04-15T18:19:51.780Z,100470.91
2023-04-15T18:22:19.768Z,100476.13
2023-04-15T18:24:49.819Z,100475.97
2023-04-15T18:27:17.889Z,100477.72
2023-04-15T18:29:47.373Z,100484.69
2023-04-15T18:32:15.326Z,100485.44
2023-04-15T18:34:43.865Z,100484.09
2023-04-15T18:37:12.017Z,100489.59
2023-04-15T18:39:39.944Z,100491.81
2023-04-15T18:42:07.920Z,100490.41
2023-04-15T18:44:35.868Z,100499.84
2023-04-15T18:47:05.210Z,100503.38
2023-04-15T18:49:36.162Z,100514.72
2023-04-15T18:52:04.282Z,100504.56
2023-04-15T18:54:32.258Z,100514.59
2023-04-15T18:57:00.382Z,100516.72
2023-04-15T18:59:30.492Z,100519.56
2023-04-15T19:01:59.753Z,100524.28
2023-04-15T19:04:29.865Z,100525.28
2023-04-15T19:06:58.994Z,100533.75
2023-04-15T19:09:27.449Z,100532.63
2023-04-15T19:11:56.986Z,100545.19
2023-04-15T19:14:25.076Z,100539.13
2023-04-15T19:16:53.115Z,100552.53
2023-04-15T19:19:21.169Z,100556.34
2023-04-15T19:21:51.000Z,100556.09
2023-04-15T19:24:19.201Z,100560.34
2023-04-15T19:26:50.793Z,100568.50
2023-04-15T19:29:19.003Z,100562.59
2023-04-15T19:31:47.088Z,100562.03
2023-04-15T19:34:15.078Z,100566.53
2023-04-15T19:36:43.526Z,100574.16
2023-04-15T19:39:13.605Z,100576.00
2023-04-15T19:41:41.577Z,100578.13
2023-04-15T19:44:09.703Z,100583.75
2023-04-15T19:46:37.832Z,100593.31
2023-04-15T19:49:06.381Z,100594.41
2023-04-15T19:51:34.604Z,100592.97
2023-04-15T19:54:02.615Z,100593.53
2023-04-15T19:56:34.272Z,100598.03
2023-04-15T19:59:02.781Z,100602.81
2023-04-15T20:01:30.940Z,100591.84
2023-04-15T20:03:59.658Z,100595.34
2023-04-15T20:06:28.520Z,100595.22
2023-04-15T20:08:56.564Z,100604.50
2023-04-15T20:12:05.193Z,100609.84
2023-04-15T20:14:18.780Z,100619.13
2023-04-15T20:16:46.805Z,100618.00
2023-04-15T20:19:14.776Z,100606.75
2023-04-15T20:21:42.815Z,100615.16
2023-04-15T20:24:10.924Z,100618.19
2023-04-15T20:26:39.036Z,100617.81
2023-04-15T20:29:07.135Z,100626.47
2023-04-15T20:31:36.884Z,100629.94
2023-04-15T20:34:08.815Z,100619.28
2023-04-15T20:36:38.730Z,100619.84
2023-04-15T20:39:06.907Z,100623.34
2023-04-15T20:41:35.024Z,100619.84
2023-04-15T20:44:02.976Z,100615.75
2023-04-15T20:46:31.080Z,100617.25
2023-04-15T20:49:01.975Z,100621.75
2023-04-15T20:51:37.539Z,100618.63
2023-04-15T20:54:05.997Z,100626.66
2023-04-15T20:56:34.046Z,100622.94
2023-04-15T20:59:02.437Z,100628.03
2023-04-15T21:01:30.471Z,100631.78
2023-04-15T21:03:58.532Z,100632.06
2023-04-15T21:06:28.214Z,100632.84
2023-04-15T21:08:56.218Z,100645.69
2023-04-15T21:11:43.041Z,100651.56
2023-04-15T21:14:12.357Z,100665.41
2023-04-15T21:16:40.428Z,100672.56
2023-04-15T21:19:09.050Z,100677.13
2023-04-15T21:21:38.457Z,100673.34
2023-04-15T21:24:07.911Z,100666.59
2023-04-15T21:26:36.378Z,100664.56
2023-04-15T21:29:04.813Z,100669.44
2023-04-15T21:31:33.118Z,100668.94
2023-04-15T21:34:01.167Z,100669.31
2023-04-15T21:36:29.140Z,100676.63
2023-04-15T21:38:58.528Z,100685.44
2023-04-15T21:41:26.505Z,100685.88
2023-04-15T21:43:54.662Z,100687.56
2023-04-15T21:46:25.701Z,100685.16
2023-04-15T21:49:01.201Z,100684.41
2023-04-15T21:51:29.235Z,100686.16
2023-04-15T21:53:58.602Z,100682.50
2023-04-15T21:56:26.997Z,100686.41
2023-04-15T21:58:57.515Z,100686.78
2023-04-15T22:01:26.325Z,100689.81
2023-04-15T22:03:54.717Z,100691.50
2023-04-15T22:06:23.042Z,100691.03
2023-04-15T22:08:56.920Z,100697.34
2023-04-15T22:11:43.372Z,100704.63
2023-04-15T22:14:11.343Z,100696.41
2023-04-15T22:16:39.354Z,100698.00
2023-04-15T22:19:07.693Z,100697.06
2023-04-15T22:21:35.862Z,100696.59
2023-04-15T22:24:37.225Z,100695.50
2023-04-15T22:26:53.172Z,100695.88
2023-04-15T22:29:21.248Z,100695.00
2023-04-15T22:31:49.225Z,100694.38
2023-04-15T22:34:21.287Z,100692.59
2023-04-15T22:36:49.360Z,100694.38
2023-04-15T22:39:17.427Z,100685.19
2023-04-15T22:41:45.895Z,100691.47
2023-04-15T22:44:17.263Z,100692.47
2023-04-15T22:46:46.225Z,100698.13
2023-04-15T22:49:14.184Z,100701.53
2023-04-15T22:51:42.262Z,100710.72
2023-04-15T22:54:10.274Z,100711.47
2023-04-15T22:56:38.247Z,100702.75
2023-04-15T22:59:06.507Z,100699.59
2023-04-15T23:01:36.447Z,100705.13
2023-04-15T23:04:06.218Z,100707.31
2023-04-15T23:06:35.131Z,100704.81
2023-04-15T23:09:03.170Z,100703.34
2023-04-15T23:11:31.811Z,100699.59
2023-04-15T23:13:59.780Z,100711.00
2023-04-15T23:16:28.364Z,100708.16
2023-04-15T23:18:57.729Z,100709.84
2023-04-15T23:21:27.412Z,100700.44
2023-04-15T23:23:55.635Z,100702.50
2023-04-15T23:26:23.607Z,100702.16
2023-04-15T23:28:51.538Z,100708.53
2023-04-15T23:31:19.579Z,100710.69
2023-04-15T23:33:47.586Z,100713.03
2023-04-15T23:36:17.104Z,100711.94
2023-04-15T23:38:45.197Z,100709.78
2023-04-15T23:41:13.207Z,100708.50
2023-04-15T23:43:41.127Z,100710.69
2023-04-15T23:46:09.479Z,100711.66
2023-04-15T23:48:37.476Z,100710.53
2023-04-15T23:51:05.989Z,100710.03
2023-04-15T23:53:38.191Z,100705.16
2023-04-15T23:56:09.113Z,100705.09
2023-04-15T23:58:37.077Z,100709.13
